Time;durP1;ratioP1;P1;durP2;ratioP2;P2;SDS_P1;SDS_P2;PMS_P1;PMS_P2;Temp;Humidity;BMP_temperature;BMP_pressure;BME280_temperature;BME280_humidity;BME280_pressure;Samples;Min_cycle;Max_cycle;Signal;HPM_P1;HPM_P2
2022/08/23 00:01:14;;;;;;;0.10;0.10;;;19.30;99.90;;;;;;4895119;29;20481;-84
2022/08/23 00:03:41;;;;;;;0.10;0.07;;;19.30;99.90;;;;;;4894808;29;20529;-83
2022/08/23 00:06:07;;;;;;;0.10;0.00;;;19.20;99.90;;;;;;4894516;29;20532;-83
2022/08/23 00:08:33;;;;;;;0.10;0.10;;;19.20;99.90;;;;;;4893272;29;20973;-82
2022/08/23 00:10:59;;;;;;;0.10;0.10;;;19.10;99.90;;;;;;4895511;29;20453;-84
2022/08/23 00:13:25;;;;;;;0.10;0.10;;;19.10;99.90;;;;;;4892235;29;20665;-84
2022/08/23 00:15:52;;;;;;;0.10;0.10;;;19.00;99.90;;;;;;4889335;29;20469;-84
2022/08/23 00:18:19;;;;;;;0.10;0.10;;;19.00;99.90;;;;;;4897829;29;20505;-84
2022/08/23 00:20:45;;;;;;;0.10;0.10;;;19.00;99.90;;;;;;4895847;29;20444;-82
2022/08/23 00:23:10;;;;;;;0.10;0.00;;;19.00;99.90;;;;;;4894827;29;20457;-84
2022/08/23 00:25:36;;;;;;;0.10;0.10;;;18.90;99.90;;;;;;4893943;29;20438;-83
2022/08/23 00:28:02;;;;;;;0.10;0.10;;;18.80;99.90;;;;;;4893259;29;20188;-83
2022/08/23 00:30:28;;;;;;;0.10;0.00;;;18.80;99.90;;;;;;4885872;29;20658;-84
2022/08/23 00:32:54;;;;;;;0.10;0.10;;;18.80;99.90;;;;;;4894034;29;20457;-83
2022/08/23 00:35:19;;;;;;;0.10;0.10;;;18.80;99.90;;;;;;4886254;29;20197;-84
2022/08/23 00:37:45;;;;;;;0.10;0.10;;;18.70;99.90;;;;;;4896364;29;20549;-83
2022/08/23 00:40:14;;;;;;;0.10;0.10;;;18.70;99.90;;;;;;4893182;29;20244;-83
2022/08/23 00:48:20;;;;;;;0.10;0.10;;;18.70;99.90;;;;;;4895464;29;20472;-84
2022/08/23 00:50:55;;;;;;;0.10;0.10;;;18.70;99.90;;;;;;4890368;29;20536;-85
2022/08/23 00:53:24;;;;;;;0.10;0.10;;;18.70;99.90;;;;;;4892312;29;20843;-83
2022/08/23 00:55:56;;;;;;;0.10;0.10;;;18.70;99.90;;;;;;4891325;29;21097;-83
2022/08/23 00:58:22;;;;;;;0.10;0.10;;;18.60;99.90;;;;;;4893826;29;20881;-83
2022/08/23 01:00:50;;;;;;;0.10;0.10;;;18.50;99.90;;;;;;4894479;29;20569;-84
2022/08/23 01:03:18;;;;;;;0.10;0.00;;;18.60;99.90;;;;;;4895501;29;20461;-83
2022/08/23 01:05:47;;;;;;;0.10;0.10;;;18.50;99.90;;;;;;4895080;29;20441;-83
2022/08/23 01:08:12;;;;;;;0.10;0.10;;;18.50;99.90;;;;;;4892093;29;20461;-84
2022/08/23 01:10:48;;;;;;;0.10;0.10;;;18.40;99.90;;;;;;4890359;29;20445;-83
2022/08/23 01:13:19;;;;;;;0.10;0.07;;;18.50;99.90;;;;;;4891733;29;20744;-83
2022/08/23 01:15:55;;;;;;;0.10;0.00;;;18.50;99.90;;;;;;4894625;29;20469;-84
2022/08/23 01:18:24;;;;;;;0.10;0.10;;;18.40;99.90;;;;;;4878072;29;20449;-83
2022/08/23 01:21:14;;;;;;;0.10;0.10;;;18.40;99.90;;;;;;4886505;29;21087;-83
2022/08/23 01:24:04;;;;;;;0.10;0.10;;;18.40;99.90;;;;;;4907508;29;20449;-84
2022/08/23 01:26:33;;;;;;;0.10;0.10;;;18.30;99.90;;;;;;4891636;29;20533;-83
2022/08/23 01:29:00;;;;;;;0.10;0.10;;;18.40;99.90;;;;;;4893730;29;20456;-83
2022/08/23 01:31:27;;;;;;;0.10;0.10;;;18.30;99.90;;;;;;4894121;29;20465;-84
2022/08/23 01:34:02;;;;;;;0.10;0.10;;;18.40;99.90;;;;;;4895313;29;20449;-82
2022/08/23 01:36:29;;;;;;;0.10;0.10;;;18.30;99.90;;;;;;4891361;29;20824;-84
2022/08/23 01:38:55;;;;;;;0.10;0.10;;;18.30;99.90;;;;;;4907408;29;20804;-83
2022/08/23 01:41:20;;;;;;;0.10;0.10;;;18.30;99.90;;;;;;4894249;29;20457;-84
2022/08/23 01:43:46;;;;;;;0.10;0.10;;;18.30;99.90;;;;;;4894787;29;20646;-83
2022/08/23 01:46:19;;;;;;;0.10;0.00;;;18.20;99.90;;;;;;4896442;29;20677;-83
2022/08/23 01:48:46;;;;;;;0.10;0.10;;;18.20;99.90;;;;;;4889910;29;20205;-83
2022/08/23 01:51:13;;;;;;;0.10;0.10;;;18.10;99.90;;;;;;4891974;29;20547;-83
2022/08/23 01:53:39;;;;;;;0.10;0.10;;;18.10;99.90;;;;;;4894764;29;20925;-83
2022/08/23 01:56:06;;;;;;;0.10;0.10;;;18.10;99.90;;;;;;4892772;29;20449;-83
2022/08/23 01:58:33;;;;;;;0.10;0.10;;;18.10;99.90;;;;;;4892925;29;20454;-84
2022/08/23 02:00:59;;;;;;;0.10;0.10;;;18.20;99.90;;;;;;4891296;29;20468;-83
2022/08/23 02:03:25;;;;;;;0.10;0.10;;;18.10;99.90;;;;;;4918801;29;20457;-83
2022/08/23 02:05:50;;;;;;;0.10;0.10;;;18.10;99.90;;;;;;4899738;29;20484;-83
2022/08/23 02:11:10;;;;;;;0.10;0.10;;;18.10;99.90;;;;;;4890576;29;20676;-83
2022/08/23 02:13:35;;;;;;;0.10;0.10;;;18.10;99.90;;;;;;4892147;29;20957;-82
2022/08/23 02:16:01;;;;;;;0.10;0.10;;;18.10;99.90;;;;;;4892411;29;20481;-83
2022/08/23 02:18:28;;;;;;;0.10;0.10;;;18.10;99.90;;;;;;4892479;29;20201;-84
2022/08/23 02:20:53;;;;;;;0.10;0.10;;;18.10;99.90;;;;;;4890898;29;20189;-83
2022/08/23 02:23:21;;;;;;;0.10;0.10;;;18.00;99.90;;;;;;4903035;29;20458;-83
2022/08/23 02:25:46;;;;;;;0.10;0.10;;;18.00;99.90;;;;;;4893398;29;20220;-84
2022/08/23 02:28:12;;;;;;;0.10;0.10;;;17.90;99.90;;;;;;4908012;29;20969;-83
2022/08/23 02:30:38;;;;;;;0.10;0.10;;;18.00;99.90;;;;;;4891927;29;20196;-84
2022/08/23 02:33:05;;;;;;;0.10;0.07;;;18.00;99.90;;;;;;4894285;29;20196;-83
2022/08/23 02:35:32;;;;;;;0.10;0.10;;;18.00;99.90;;;;;;4893022;29;20529;-84
2022/08/23 02:38:01;;;;;;;0.10;0.10;;;18.00;99.90;;;;;;4886992;29;20451;-83
2022/08/23 02:40:27;;;;;;;0.10;0.10;;;18.00;99.90;;;;;;4908565;29;20445;-84
2022/08/23 02:42:52;;;;;;;0.10;0.10;;;18.00;99.90;;;;;;4893480;29;20945;-83
2022/08/23 02:45:18;;;;;;;0.10;0.10;;;18.10;99.90;;;;;;4892567;29;20317;-83
2022/08/23 02:47:45;;;;;;;0.10;0.10;;;18.10;99.90;;;;;;4892534;29;20280;-84
2022/08/23 02:50:11;;;;;;;0.10;0.10;;;18.00;99.90;;;;;;4893117;29;20220;-84
2022/08/23 02:52:36;;;;;;;0.10;0.10;;;18.10;99.90;;;;;;4892332;29;20461;-84
2022/08/23 02:55:02;;;;;;;0.10;0.10;;;18.10;99.90;;;;;;4894456;29;20653;-83
2022/08/23 02:57:28;;;;;;;0.10;0.10;;;18.10;99.90;;;;;;4894146;29;20207;-84
2022/08/23 02:59:53;;;;;;;0.10;0.10;;;18.10;99.90;;;;;;4894098;29;20583;-84
2022/08/23 03:02:19;;;;;;;0.10;0.10;;;18.10;99.90;;;;;;4892666;29;20208;-84
2022/08/23 03:04:45;;;;;;;0.10;0.10;;;18.10;99.90;;;;;;4891752;29;20193;-83
2022/08/23 03:07:11;;;;;;;0.10;0.10;;;18.10;99.90;;;;;;4892124;29;20255;-84
2022/08/23 03:09:36;;;;;;;0.10;0.10;;;18.00;99.90;;;;;;4894430;29;20602;-84
2022/08/23 03:12:02;;;;;;;0.10;0.10;;;18.00;99.90;;;;;;4890260;29;20544;-83
2022/08/23 03:14:28;;;;;;;0.10;0.10;;;18.00;99.90;;;;;;4892804;29;20319;-84
2022/08/23 03:16:53;;;;;;;0.10;0.10;;;18.10;99.90;;;;;;4891528;29;20537;-84
2022/08/23 03:19:20;;;;;;;0.10;0.10;;;18.00;99.90;;;;;;4898829;29;20192;-84
2022/08/23 03:21:46;;;;;;;0.10;0.10;;;18.00;99.90;;;;;;4892133;29;20189;-83
2022/08/23 03:24:11;;;;;;;0.10;0.10;;;18.00;99.90;;;;;;4892739;29;20507;-84
2022/08/23 03:26:40;;;;;;;0.10;0.10;;;18.10;99.90;;;;;;4893818;29;20619;-85
2022/08/23 03:29:05;;;;;;;0.10;0.10;;;18.10;99.90;;;;;;4896575;29;20189;-86
2022/08/23 03:31:31;;;;;;;0.10;0.10;;;18.10;99.90;;;;;;4896845;29;20831;-84
2022/08/23 03:33:57;;;;;;;0.10;0.00;;;18.10;99.90;;;;;;4896853;29;20650;-84
2022/08/23 03:36:23;;;;;;;0.10;0.10;;;18.00;99.90;;;;;;4894953;29;20220;-84
2022/08/23 03:38:48;;;;;;;0.10;0.10;;;18.00;99.90;;;;;;4891197;29;20528;-84
2022/08/23 03:41:14;;;;;;;0.10;0.10;;;18.10;99.90;;;;;;4894768;29;20188;-84
2022/08/23 03:43:39;;;;;;;0.10;0.10;;;18.00;99.90;;;;;;4894598;29;20221;-83
2022/08/23 03:46:06;;;;;;;0.10;0.10;;;18.00;99.90;;;;;;4895921;29;20224;-84
2022/08/23 03:48:31;;;;;;;0.10;0.10;;;18.00;99.90;;;;;;4888952;29;20843;-83
2022/08/23 03:50:57;;;;;;;0.10;0.10;;;18.00;99.90;;;;;;4889846;29;20448;-83
2022/08/23 03:53:23;;;;;;;0.10;0.10;;;18.10;99.90;;;;;;4910689;29;20657;-83
2022/08/23 03:55:49;;;;;;;0.10;0.10;;;18.10;99.90;;;;;;4886680;29;20264;-83
2022/08/23 03:58:15;;;;;;;0.10;0.10;;;18.10;99.90;;;;;;4889385;29;20232;-83
2022/08/23 04:00:41;;;;;;;0.10;0.10;;;18.10;99.90;;;;;;4892340;29;20445;-84
2022/08/23 04:03:07;;;;;;;0.10;0.10;;;18.00;99.90;;;;;;4891289;29;20508;-83
2022/08/23 04:05:33;;;;;;;0.10;0.00;;;18.00;99.90;;;;;;4895306;29;20229;-83
2022/08/23 04:08:01;;;;;;;0.10;0.10;;;18.10;99.90;;;;;;4890099;29;20195;-84
2022/08/23 04:10:26;;;;;;;0.10;0.10;;;18.10;99.90;;;;;;4888552;29;20653;-84
2022/08/23 04:12:53;;;;;;;0.10;0.00;;;18.10;99.90;;;;;;4892539;29;20476;-84
2022/08/23 04:15:19;;;;;;;0.10;0.10;;;18.10;99.90;;;;;;4890501;29;20228;-82
2022/08/23 04:17:44;;;;;;;0.10;0.10;;;18.10;99.90;;;;;;4892897;29;20504;-84
2022/08/23 04:20:10;;;;;;;0.10;0.00;;;18.10;99.90;;;;;;4901695;29;20714;-83
2022/08/23 04:22:36;;;;;;;0.10;0.10;;;18.00;99.90;;;;;;4907040;29;20641;-84
2022/08/23 04:25:02;;;;;;;0.10;0.10;;;18.10;99.90;;;;;;4890947;29;20540;-84
2022/08/23 04:27:28;;;;;;;0.10;0.10;;;18.10;99.90;;;;;;4893574;29;20256;-83
2022/08/23 04:29:54;;;;;;;0.10;0.10;;;18.10;99.90;;;;;;4895238;29;20509;-85
2022/08/23 04:32:20;;;;;;;0.10;0.10;;;18.10;99.90;;;;;;4894202;29;20200;-84
2022/08/23 04:34:47;;;;;;;0.10;0.10;;;18.10;99.90;;;;;;4894221;29;20184;-84
2022/08/23 04:37:13;;;;;;;0.10;0.10;;;18.10;99.90;;;;;;4892645;29;20819;-83
2022/08/23 04:42:23;;;;;;;0.10;0.10;;;18.10;99.90;;;;;;4889159;29;20204;-83
2022/08/23 04:44:49;;;;;;;0.10;0.10;;;18.10;99.90;;;;;;4887472;29;20442;-84
2022/08/23 04:47:15;;;;;;;0.10;0.10;;;18.10;99.90;;;;;;4884739;29;20540;-84
2022/08/23 04:49:41;;;;;;;0.10;0.10;;;18.10;99.90;;;;;;4886053;29;22340;-83
2022/08/23 04:52:07;;;;;;;0.10;0.10;;;18.10;99.90;;;;;;4891615;29;20457;-84
2022/08/23 04:54:32;;;;;;;0.10;0.00;;;18.10;99.90;;;;;;4906016;29;20674;-85
2022/08/23 04:56:58;;;;;;;0.10;0.10;;;18.10;99.90;;;;;;4887635;29;20205;-84
2022/08/23 04:59:23;;;;;;;0.10;0.10;;;18.20;99.90;;;;;;4893232;29;20614;-83
2022/08/23 05:01:49;;;;;;;0.10;0.10;;;18.20;99.90;;;;;;4882450;29;20194;-85
2022/08/23 05:04:16;;;;;;;0.10;0.10;;;18.20;99.90;;;;;;4891719;29;21075;-85
2022/08/23 05:06:41;;;;;;;0.10;0.10;;;18.20;99.90;;;;;;4890669;29;20993;-84
2022/08/23 05:09:07;;;;;;;0.10;0.10;;;18.20;99.90;;;;;;4906916;29;20448;-82
2022/08/23 05:11:33;;;;;;;0.10;0.10;;;18.30;99.90;;;;;;4893538;29;20642;-85
2022/08/23 05:13:58;;;;;;;0.10;0.10;;;18.30;99.90;;;;;;4895051;29;20637;-85
2022/08/23 05:16:24;;;;;;;0.10;0.10;;;18.30;99.90;;;;;;4891853;29;20476;-85
2022/08/23 05:18:50;;;;;;;0.10;0.10;;;18.30;99.90;;;;;;4893956;29;20204;-85
2022/08/23 05:21:18;;;;;;;0.10;0.10;;;18.30;99.90;;;;;;4887567;29;20197;-85
2022/08/23 05:23:44;;;;;;;0.10;0.10;;;18.40;99.90;;;;;;4892725;29;20592;-85
2022/08/23 05:26:10;;;;;;;0.10;0.10;;;18.50;99.90;;;;;;4886073;29;20856;-85
2022/08/23 05:28:41;;;;;;;0.10;0.10;;;18.50;99.90;;;;;;4907834;29;20461;-86
2022/08/23 05:31:10;;;;;;;0.10;0.10;;;18.50;99.90;;;;;;4891432;29;20453;-85
2022/08/23 05:33:36;;;;;;;0.10;0.10;;;18.50;99.90;;;;;;4893906;29;20950;-87
2022/08/23 05:36:04;;;;;;;0.10;0.10;;;18.50;99.90;;;;;;4904642;29;20527;-85
2022/08/23 05:38:30;;;;;;;0.10;0.10;;;18.40;99.90;;;;;;4908681;29;20453;-85
2022/08/23 05:40:56;;;;;;;0.10;0.10;;;18.50;99.90;;;;;;4894311;29;21004;-86
2022/08/23 05:43:23;;;;;;;0.10;0.10;;;18.50;99.90;;;;;;4894833;29;20580;-86
2022/08/23 05:46:03;;;;;;;0.10;0.10;;;18.50;99.90;;;;;;4889127;29;20486;-88
2022/08/23 05:48:30;;;;;;;0.10;0.10;;;18.60;99.90;;;;;;4892119;29;20481;-85
2022/08/23 05:50:56;;;;;;;0.10;0.10;;;18.60;99.90;;;;;;4892971;29;20458;-85
2022/08/23 05:53:22;;;;;;;0.10;0.10;;;18.60;99.90;;;;;;4880108;29;20525;-84
2022/08/23 05:55:48;;;;;;;0.10;0.10;;;18.60;99.90;;;;;;4894252;29;20505;-85
2022/08/23 05:58:13;;;;;;;0.10;0.10;;;18.60;99.90;;;;;;4887014;29;20509;-86
2022/08/23 06:00:39;;;;;;;0.10;0.10;;;18.70;99.90;;;;;;4883126;29;20189;-86
2022/08/23 06:03:04;;;;;;;0.10;0.10;;;18.70;99.90;;;;;;4894808;29;20280;-85
2022/08/23 06:05:29;;;;;;;0.10;0.10;;;18.70;99.90;;;;;;4891583;29;20638;-85
2022/08/23 06:07:57;;;;;;;0.10;0.00;;;18.80;99.90;;;;;;4894508;29;20232;-85
2022/08/23 06:10:23;;;;;;;0.10;0.10;;;18.80;99.90;;;;;;4905868;29;20214;-84
2022/08/23 06:12:48;;;;;;;0.10;0.10;;;18.80;99.90;;;;;;4893882;29;20536;-86
2022/08/23 06:15:14;;;;;;;0.10;0.10;;;18.80;99.90;;;;;;4888998;29;20236;-85
2022/08/23 06:17:40;;;;;;;0.10;0.10;;;18.80;99.90;;;;;;4894622;29;20189;-87
2022/08/23 06:20:06;;;;;;;0.10;0.10;;;18.80;99.90;;;;;;4886339;29;20233;-85
2022/08/23 06:22:32;;;;;;;0.10;0.10;;;18.80;99.90;;;;;;4888445;29;20205;-86
2022/08/23 06:24:57;;;;;;;0.10;0.07;;;18.90;99.90;;;;;;4890520;29;20457;-86
2022/08/23 06:27:23;;;;;;;0.10;0.10;;;18.90;99.90;;;;;;4890285;29;20220;-86
2022/08/23 06:29:48;;;;;;;0.10;0.10;;;18.90;99.90;;;;;;4891149;29;20192;-86
2022/08/23 06:32:14;;;;;;;0.10;0.10;;;18.90;99.90;;;;;;4891985;29;20340;-86
2022/08/23 06:34:39;;;;;;;0.10;0.10;;;18.90;99.90;;;;;;4886794;29;20194;-87
2022/08/23 06:37:13;;;;;;;0.10;0.10;;;18.90;99.90;;;;;;4891274;29;20204;-88
2022/08/23 06:39:40;;;;;;;0.10;0.10;;;19.00;99.90;;;;;;4894221;29;20193;-87
2022/08/23 06:42:10;;;;;;;0.10;0.10;;;19.00;99.90;;;;;;4891399;29;20540;-88
2022/08/23 06:44:36;;;;;;;0.10;0.10;;;19.00;99.90;;;;;;4886638;29;20536;-86
2022/08/23 06:47:02;;;;;;;0.10;0.10;;;19.00;99.90;;;;;;4888261;29;20501;-87
2022/08/23 06:49:28;;;;;;;0.10;0.10;;;19.00;99.90;;;;;;4893280;29;20457;-87
2022/08/23 06:51:56;;;;;;;0.10;0.10;;;19.00;99.90;;;;;;4890261;29;20504;-86
2022/08/23 06:54:25;;;;;;;0.10;0.10;;;19.10;99.90;;;;;;4892070;29;20274;-86
2022/08/23 06:56:50;;;;;;;0.10;0.00;;;19.10;99.90;;;;;;4887964;29;20461;-87
2022/08/23 06:59:17;;;;;;;0.10;0.10;;;19.10;99.90;;;;;;4887758;29;20457;-85
2022/08/23 07:01:51;;;;;;;0.10;0.00;;;19.10;99.90;;;;;;4889743;29;20706;-86
2022/08/23 07:04:21;;;;;;;0.10;0.10;;;19.20;99.90;;;;;;4892975;29;20511;-87
2022/08/23 07:06:46;;;;;;;0.10;0.10;;;19.20;99.90;;;;;;4890463;29;20556;-86
2022/08/23 07:09:13;;;;;;;0.10;0.00;;;19.30;99.90;;;;;;4890776;29;20445;-86
2022/08/23 07:11:39;;;;;;;0.10;0.10;;;19.30;99.90;;;;;;4890615;29;20193;-88
2022/08/23 07:14:09;;;;;;;0.10;0.00;;;19.40;99.90;;;;;;4890344;29;20476;-86
2022/08/23 07:16:38;;;;;;;0.10;0.10;;;19.40;99.90;;;;;;4890266;29;21097;-85
2022/08/23 07:19:04;;;;;;;0.10;0.10;;;19.50;99.90;;;;;;4891243;29;20445;-86
2022/08/23 07:21:31;;;;;;;0.10;0.00;;;19.50;99.90;;;;;;4908437;29;20564;-85
2022/08/23 07:23:57;;;;;;;0.10;0.07;;;19.60;99.90;;;;;;4892125;29;20482;-86
2022/08/23 07:26:23;;;;;;;0.10;0.10;;;19.60;99.90;;;;;;4903754;29;20488;-86
2022/08/23 07:28:49;;;;;;;0.10;0.10;;;19.60;99.90;;;;;;4889284;29;20453;-85
2022/08/23 07:31:25;;;;;;;0.10;0.10;;;19.70;99.90;;;;;;4891354;29;20492;-86
2022/08/23 07:33:52;;;;;;;0.10;0.10;;;19.80;99.90;;;;;;4891631;29;20440;-87
2022/08/23 07:36:21;;;;;;;0.10;0.00;;;19.80;99.90;;;;;;4889084;29;20448;-85
2022/08/23 07:38:47;;;;;;;0.10;0.00;;;19.90;99.90;;;;;;4890233;29;20449;-85
2022/08/23 07:41:13;;;;;;;0.10;0.10;;;19.90;99.90;;;;;;4884884;29;20544;-85
2022/08/23 07:43:40;;;;;;;0.10;0.07;;;20.00;99.90;;;;;;4889824;29;20516;-86
2022/08/23 07:46:07;;;;;;;0.10;0.10;;;20.10;99.90;;;;;;4891242;29;20508;-87
2022/08/23 07:48:33;;;;;;;0.10;0.10;;;20.10;99.90;;;;;;4893326;29;20468;-86
2022/08/23 07:51:01;;;;;;;0.10;0.00;;;20.10;99.90;;;;;;4894169;29;20494;-87
2022/08/23 07:53:27;;;;;;;0.10;0.00;;;20.20;99.90;;;;;;4891129;29;20897;-86
2022/08/23 07:55:54;;;;;;;0.10;0.00;;;20.30;99.90;;;;;;4890611;29;20445;-86
2022/08/23 07:58:20;;;;;;;0.10;0.00;;;20.40;99.90;;;;;;4893213;29;20516;-89
2022/08/23 08:00:46;;;;;;;0.10;0.00;;;20.50;99.90;;;;;;4890126;29;20499;-87
2022/08/23 08:03:12;;;;;;;0.10;0.00;;;20.50;99.90;;;;;;4887715;29;20586;-86
2022/08/23 08:05:38;;;;;;;0.10;0.00;;;20.50;99.90;;;;;;4891811;29;20949;-86
2022/08/23 08:08:05;;;;;;;0.10;0.00;;;20.60;99.90;;;;;;4886779;29;20575;-88
2022/08/23 08:10:31;;;;;;;0.10;0.00;;;20.70;99.90;;;;;;4892894;29;20193;-88
2022/08/23 08:12:56;;;;;;;0.10;0.00;;;20.80;99.90;;;;;;4909027;29;20816;-87
2022/08/23 08:15:22;;;;;;;0.10;0.10;;;20.80;99.90;;;;;;4883237;29;20546;-87
2022/08/23 08:17:50;;;;;;;0.10;0.00;;;20.90;99.90;;;;;;4885814;29;20185;-87
2022/08/23 08:20:17;;;;;;;0.10;0.00;;;21.00;99.90;;;;;;4887133;29;20448;-87
2022/08/23 08:22:42;;;;;;;0.10;0.00;;;21.10;99.90;;;;;;4890712;29;21579;-86
2022/08/23 08:25:09;;;;;;;0.10;0.00;;;21.20;99.90;;;;;;4908006;29;20489;-86
2022/08/23 08:27:35;;;;;;;0.10;0.00;;;21.30;99.90;;;;;;4892249;29;20232;-85
2022/08/23 08:30:02;;;;;;;0.10;0.00;;;21.50;99.90;;;;;;4891759;29;20449;-81
2022/08/23 08:32:28;;;;;;;0.10;0.00;;;21.80;99.90;;;;;;4895580;29;20217;-85
2022/08/23 08:34:53;;;;;;;0.10;0.00;;;21.80;99.90;;;;;;4893485;29;20532;-85
2022/08/23 08:37:19;;;;;;;0.10;0.00;;;22.00;99.90;;;;;;4892853;29;20529;-84
2022/08/23 08:39:44;;;;;;;0.10;0.00;;;22.10;99.90;;;;;;4890993;29;20189;-87
2022/08/23 08:42:27;;;;;;;0.10;0.00;;;22.20;99.90;;;;;;4895812;29;20196;-87
2022/08/23 08:44:57;;;;;;;0.10;0.10;;;22.60;99.90;;;;;;4894327;29;20268;-86
2022/08/23 08:47:44;;;;;;;0.10;0.00;;;22.80;99.90;;;;;;4891612;29;20679;-88
2022/08/23 08:50:25;;;;;;;0.10;0.00;;;22.70;99.90;;;;;;4895201;29;20460;-85
2022/08/23 08:52:58;;;;;;;0.10;0.00;;;22.90;99.90;;;;;;4891918;29;20495;-80
2022/08/23 08:55:37;;;;;;;0.10;0.00;;;23.10;99.90;;;;;;4889062;29;20508;-84
2022/08/23 08:58:05;;;;;;;0.10;0.00;;;23.50;99.90;;;;;;4897162;29;20512;-84
2022/08/23 09:00:36;;;;;;;0.10;0.00;;;23.70;99.90;;;;;;4894224;29;20527;-88
2022/08/23 09:03:13;;;;;;;0.10;0.00;;;23.80;99.90;;;;;;4892360;29;20853;-86
2022/08/23 09:05:49;;;;;;;0.10;0.00;;;23.80;99.90;;;;;;4892090;29;20444;-86
2022/08/23 09:08:35;;;;;;;0.10;0.10;;;24.00;99.90;;;;;;4895272;29;20938;-86
2022/08/23 09:11:08;;;;;;;0.10;0.00;;;24.20;99.90;;;;;;4896088;29;20945;-85
2022/08/23 09:14:06;;;;;;;0.10;0.00;;;24.00;99.90;;;;;;4896118;29;20457;-86
2022/08/23 09:16:52;;;;;;;0.10;0.00;;;23.70;99.90;;;;;;4893874;29;20453;-85
2022/08/23 09:19:21;;;;;;;0.10;0.00;;;23.50;99.90;;;;;;4894333;29;20453;-86
2022/08/23 09:22:12;;;;;;;0.10;0.00;;;23.90;99.90;;;;;;4891883;29;20450;-85
2022/08/23 09:24:39;;;;;;;0.10;0.00;;;24.30;99.90;;;;;;4893721;29;20536;-86
2022/08/23 09:27:07;;;;;;;0.10;0.00;;;24.50;99.90;;;;;;4893092;29;20493;-84
2022/08/23 09:29:35;;;;;;;0.10;0.00;;;24.40;99.90;;;;;;4893474;29;20846;-84
2022/08/23 09:32:04;;;;;;;0.10;0.00;;;24.60;99.90;;;;;;4896645;29;20435;-85
2022/08/23 09:34:36;;;;;;;0.10;0.00;;;24.80;99.90;;;;;;4896194;29;21259;-85
2022/08/23 09:37:22;;;;;;;0.20;0.10;;;24.60;99.90;;;;;;4892341;29;20962;-86
2022/08/23 09:39:51;;;;;;;0.10;0.00;;;25.00;99.90;;;;;;4885484;29;20602;-84
2022/08/23 09:42:36;;;;;;;0.10;0.00;;;25.20;99.90;;;;;;4894330;29;20548;-84
2022/08/23 09:45:23;;;;;;;0.10;0.00;;;25.20;99.90;;;;;;4888129;29;20539;-85
2022/08/23 09:47:49;;;;;;;0.10;0.00;;;25.30;99.90;;;;;;4893323;29;20492;-84
2022/08/23 09:50:28;;;;;;;0.10;0.00;;;25.80;99.90;;;;;;4893763;29;20834;-86
2022/08/23 09:53:01;;;;;;;0.10;0.00;;;26.10;99.90;;;;;;4890145;29;20195;-84
2022/08/23 09:55:35;;;;;;;0.10;0.00;;;25.90;99.90;;;;;;4878461;29;20446;-86
2022/08/23 09:58:16;;;;;;;0.10;0.00;;;26.10;99.90;;;;;;4887598;29;20966;-84
2022/08/23 10:00:42;;;;;;;0.10;0.00;;;25.90;99.90;;;;;;4893764;29;20516;-85
2022/08/23 10:03:26;;;;;;;0.10;0.00;;;26.00;99.90;;;;;;4894032;29;20536;-85
2022/08/23 10:05:55;;;;;;;0.10;0.00;;;25.80;99.90;;;;;;4892309;29;20452;-84
2022/08/23 10:08:23;;;;;;;0.10;0.00;;;25.60;99.90;;;;;;4893456;29;21004;-84
2022/08/23 10:10:52;;;;;;;0.10;0.00;;;25.70;99.90;;;;;;4882472;29;20540;-85
2022/08/23 10:13:19;;;;;;;0.10;0.00;;;26.10;99.90;;;;;;4894350;29;20461;-85
2022/08/23 10:16:01;;;;;;;0.10;0.00;;;26.70;99.90;;;;;;4894940;29;20906;-85
2022/08/23 10:18:52;;;;;;;0.10;0.00;;;27.00;99.90;;;;;;4893853;29;20437;-86
2022/08/23 10:21:37;;;;;;;0.10;0.00;;;27.20;99.90;;;;;;4891769;29;20445;-84
2022/08/23 10:24:05;;;;;;;0.10;0.00;;;27.50;99.90;;;;;;4882703;29;20454;-89
2022/08/23 10:26:34;;;;;;;0.10;0.00;;;27.60;99.90;;;;;;4889004;29;20473;-87
2022/08/23 10:29:39;;;;;;;0.10;0.00;;;27.70;99.90;;;;;;4892869;29;20457;-88
2022/08/23 10:32:05;;;;;;;0.10;0.00;;;27.30;99.90;;;;;;4883059;29;20500;-89
2022/08/23 10:34:42;;;;;;;0.10;0.00;;;27.60;99.90;;;;;;4894146;29;20465;-90
2022/08/23 10:37:41;;;;;;;0.10;0.00;;;28.00;99.90;;;;;;4892248;29;20521;-88
2022/08/23 10:40:33;;;;;;;0.10;0.00;;;28.20;99.90;;;;;;4903142;29;20449;-89
2022/08/23 10:43:12;;;;;;;0.10;0.00;;;28.40;99.90;;;;;;4891057;29;20437;-86
2022/08/23 10:45:42;;;;;;;0.10;0.00;;;28.20;99.90;;;;;;4891701;29;20483;-88
2022/08/23 10:48:27;;;;;;;0.10;0.00;;;28.40;99.90;;;;;;4884054;29;20496;-88
2022/08/23 10:51:00;;;;;;;0.10;0.00;;;28.60;99.90;;;;;;4888464;29;20453;-90
2022/08/23 10:53:38;;;;;;;0.10;0.00;;;29.00;99.90;;;;;;4891268;29;21036;-88
2022/08/23 10:56:06;;;;;;;0.10;0.00;;;28.70;99.90;;;;;;4890518;29;20460;-87
2022/08/23 10:58:38;;;;;;;0.10;0.00;;;28.90;99.90;;;;;;4887229;29;20449;-87
2022/08/23 11:01:06;;;;;;;0.10;0.00;;;29.20;99.90;;;;;;4888281;29;20448;-90
2022/08/23 11:03:39;;;;;;;0.10;0.00;;;28.90;99.90;;;;;;4890093;29;20564;-88
2022/08/23 11:06:25;;;;;;;0.10;0.00;;;29.30;99.90;;;;;;4883500;29;20449;-91
2022/08/23 11:09:08;;;;;;;0.10;0.00;;;29.50;99.90;;;;;;4893914;29;20461;-88
2022/08/23 11:11:42;;;;;;;0.10;0.00;;;29.60;99.90;;;;;;4889162;29;20459;-89
2022/08/23 11:14:11;;;;;;;0.10;0.00;;;29.40;99.90;;;;;;4904460;29;21359;-89
2022/08/23 11:16:41;;;;;;;0.10;0.00;;;30.10;99.90;;;;;;4893649;29;20465;-86
2022/08/23 11:19:12;;;;;;;0.10;0.00;;;30.80;99.90;;;;;;4892920;29;21060;-87
2022/08/23 11:21:39;;;;;;;0.10;0.00;;;30.40;99.90;;;;;;4893313;29;20565;-88
2022/08/23 11:24:04;;;;;;;0.10;0.00;;;30.30;99.90;;;;;;4894300;29;20449;-85
2022/08/23 11:26:38;;;;;;;0.10;0.00;;;30.30;99.90;;;;;;4894774;29;20525;-85
2022/08/23 11:29:07;;;;;;;0.10;0.00;;;30.70;99.90;;;;;;4890466;29;20196;-85
2022/08/23 11:31:34;;;;;;;0.10;0.00;;;31.00;99.90;;;;;;4890131;29;20544;-82
2022/08/23 11:34:04;;;;;;;0.10;0.00;;;30.10;99.90;;;;;;4906225;29;20449;-81
2022/08/23 11:36:32;;;;;;;0.10;0.00;;;30.40;99.90;;;;;;4889110;29;20516;-86
2022/08/23 11:38:57;;;;;;;0.10;0.00;;;30.50;99.90;;;;;;4882671;29;20449;-85
2022/08/23 11:41:32;;;;;;;0.10;0.00;;;30.50;99.90;;;;;;4894369;29;20867;-87
2022/08/23 11:44:03;;;;;;;0.10;0.00;;;30.60;99.90;;;;;;4893722;29;20222;-87
2022/08/23 11:46:52;;;;;;;0.10;0.00;;;30.40;99.90;;;;;;4892150;29;20572;-88
2022/08/23 11:49:54;;;;;;;0.10;0.00;;;30.30;99.90;;;;;;4892336;29;20456;-87
2022/08/23 11:52:30;;;;;;;0.10;0.00;;;31.30;99.90;;;;;;4888402;29;20453;-86
2022/08/23 11:55:13;;;;;;;0.10;0.00;;;32.00;99.90;;;;;;4912116;29;20425;-88
2022/08/23 11:57:53;;;;;;;0.10;0.00;;;32.10;99.90;;;;;;4888949;29;20452;-87
2022/08/23 12:00:43;;;;;;;0.10;0.00;;;32.30;99.90;;;;;;4910569;29;20457;-88
2022/08/23 12:03:42;;;;;;;0.10;0.00;;;32.00;99.90;;;;;;4896590;29;20515;-89
2022/08/23 12:06:31;;;;;;;0.10;0.00;;;32.10;99.90;;;;;;4901904;29;20488;-87
2022/08/23 12:09:00;;;;;;;0.10;0.00;;;32.50;99.90;;;;;;4888103;29;20487;-89
2022/08/23 12:11:55;;;;;;;0.10;0.00;;;32.40;99.90;;;;;;4893034;29;21025;-86
2022/08/23 12:14:29;;;;;;;0.10;0.00;;;32.10;99.90;;;;;;4894426;29;20852;-86
2022/08/23 12:16:56;;;;;;;0.10;0.00;;;31.50;99.90;;;;;;4895550;29;20691;-86
2022/08/23 12:19:37;;;;;;;0.10;0.00;;;32.10;99.90;;;;;;4893989;29;20453;-87
2022/08/23 12:22:13;;;;;;;0.10;0.00;;;31.60;99.90;;;;;;4910257;29;20552;-88
2022/08/23 12:25:02;;;;;;;0.10;0.00;;;32.00;99.90;;;;;;4893731;29;20956;-87
2022/08/23 12:27:54;;;;;;;0.10;0.00;;;32.00;99.90;;;;;;4895477;29;20539;-87
2022/08/23 12:30:32;;;;;;;0.10;0.00;;;31.10;99.90;;;;;;4905169;29;20468;-86
2022/08/23 12:33:14;;;;;;;0.10;0.00;;;32.00;99.90;;;;;;4887742;29;20451;-88
2022/08/23 12:35:57;;;;;;;0.10;0.00;;;32.40;99.90;;;;;;4894131;29;20456;-89
2022/08/23 12:38:26;;;;;;;0.10;0.00;;;32.00;99.90;;;;;;4893755;29;20571;-87
2022/08/23 12:40:52;;;;;;;0.10;0.00;;;32.30;99.90;;;;;;4893371;29;20775;-89
2022/08/23 12:43:22;;;;;;;0.10;0.00;;;31.90;99.30;;;;;;4893351;29;20544;-90
2022/08/23 12:45:56;;;;;;;0.10;0.00;;;31.20;99.60;;;;;;4896727;29;20544;-84
2022/08/23 12:48:25;;;;;;;0.10;0.00;;;31.70;99.80;;;;;;4894269;29;20476;-84
2022/08/23 12:51:06;;;;;;;0.10;0.00;;;32.40;99.20;;;;;;4893015;29;20476;-86
2022/08/23 12:53:35;;;;;;;0.10;0.00;;;32.30;99.00;;;;;;4889868;29;20472;-84
2022/08/23 12:56:07;;;;;;;0.10;0.00;;;32.40;99.30;;;;;;4886110;29;20540;-84
2022/08/23 12:58:36;;;;;;;0.10;0.00;;;32.40;97.70;;;;;;4891699;29;20521;-83
2022/08/23 13:01:06;;;;;;;0.10;0.00;;;32.60;98.00;;;;;;4894982;29;20457;-85
2022/08/23 13:03:43;;;;;;;0.00;0.00;;;31.70;98.10;;;;;;4894985;29;20565;-85
2022/08/23 13:06:13;;;;;;;0.10;0.00;;;32.20;97.00;;;;;;4890328;29;20580;-84
2022/08/23 13:08:41;;;;;;;0.10;0.00;;;32.50;97.20;;;;;;4884988;29;20460;-85
2022/08/23 13:11:08;;;;;;;0.10;0.00;;;33.00;96.20;;;;;;4885341;29;20486;-83
2022/08/23 13:13:36;;;;;;;0.10;0.00;;;33.10;96.20;;;;;;4881071;29;20651;-84